Flughafen Saarbrücken

Aus VATSIM Germany
Dies ist die bestätigte sowie die neueste Version dieser Seite.
Wechseln zu:Navigation, Suche
UnderCon icon.svg.pngDieser Artikel ist noch im Aufbau. Der Artikel kann daher unvollständig sein oder Fehler enthalten!


Saarbrucken Airport
ICAO / IATA EDDR / SCN
Koordinaten N49°12′53″  E007°6′34″
Höhe 322 m / 1058 ft
Wetter EDDR 171620Z 06004KT 9999 FEW040 18/12 Q1015 NOSIG
Pisten
Platzfrequenzen
Nur für Flugsimulationszwecke!



Informationen für Piloten und Lotsen
Pilotenbriefing

Standard Operating Procedures (SOP)

Letters of Agreement (LoAs)

Vorlage:Chartbox